CheckWX is a tool to help pilots better visualize weather data.  It is not intended as a substitute for an official pre-flight weather briefing.

08:14:41 UTC

KHAO METAR
Butler Co Regional-Hogan Field Airport
Hamilton, Ohio, USA
Current

22 mins ago

KHAO 220753Z AUTO 00000KT 9SM CLR 02/M02 A3031 RMK AO2 SLP269 T00221017
Observed
Feb-22 @ 07:53 UTC
Visibility
9 SM
Flight Rules
VFR
Cloud Levels
  • Clear skies
Temperature
C / 36°F
Dewpoint
-2°C / 28°F
Humidity
75%
Altimeter
30.31" Hg
Pressure
1026.9 hPa
Previous

1 hour ago

KHAO 220653Z AUTO 36003KT 9SM CLR 02/M01 A3032 RMK AO2 SLP271 T00171006
Observed
Feb-22 @ 06:53 UTC
Wind
  • 360° at 3 KTS
Visibility
9 SM
Flight Rules
VFR
Cloud Levels
  • Clear skies
Temperature
C / 36°F
Dewpoint
-1°C / 30°F
Humidity
81%
Altimeter
30.32" Hg
Pressure
1027.1 hPa
Previous

2 hours ago

KHAO 220553Z AUTO 00000KT 10SM CLR 03/M01 A3031 RMK AO2 SLP267 T00281011 10061 20028 55002
Observed
Feb-22 @ 05:53 UTC
Visibility
10 SM
Flight Rules
VFR
Cloud Levels
  • Clear skies
Temperature
C / 37°F
Dewpoint
-1°C / 30°F
Humidity
75%
Altimeter
30.31" Hg
Pressure
1026.7 hPa